createdAt,value
2022-11-24T01:47:16.890Z,12.48
2022-11-24T01:49:51.320Z,13.98
2022-11-24T01:52:33.854Z,16.95
2022-11-24T01:55:06.780Z,13.30
2022-11-24T01:57:42.084Z,16.35
2022-11-24T02:00:12.224Z,14.00
2022-11-24T02:02:44.332Z,12.25
2022-11-24T02:05:39.060Z,13.38
2022-11-24T02:08:14.829Z,15.98
2022-11-24T02:10:44.049Z,12.75
2022-11-24T02:13:12.114Z,14.95
2022-11-24T02:15:39.420Z,15.70
2022-11-24T02:18:07.045Z,12.88
2022-11-24T02:20:34.334Z,12.23
2022-11-24T02:23:42.307Z,12.98
2022-11-24T02:26:12.253Z,14.38
2022-11-24T02:28:40.213Z,13.68
2022-11-24T02:31:07.507Z,12.68
2022-11-24T02:33:36.548Z,14.70
2022-11-24T02:36:03.988Z,11.52
2022-11-24T02:38:35.799Z,9.32
2022-11-24T02:41:07.641Z,10.80
2022-11-24T02:43:42.756Z,11.98
2022-11-24T02:46:10.894Z,12.18
2022-11-24T02:48:38.982Z,11.57
2022-11-24T02:51:06.328Z,10.18
2022-11-24T02:53:33.751Z,10.00
2022-11-24T02:56:01.112Z,14.70
2022-11-24T03:00:57.190Z,12.90
2022-11-24T03:03:25.260Z,16.95
2022-11-24T03:05:52.796Z,10.55
2022-11-24T03:08:20.312Z,12.60
2022-11-24T03:10:47.569Z,15.40
2022-11-24T03:13:15.212Z,11.13
2022-11-24T03:15:42.496Z,13.77
2022-11-24T03:18:09.898Z,14.65
2022-11-24T03:20:37.389Z,10.35
2022-11-24T03:23:04.602Z,12.00
2022-11-24T03:25:31.952Z,14.00
2022-11-24T03:27:59.359Z,12.68
2022-11-24T03:30:27.674Z,13.38
2022-11-24T03:32:55.012Z,14.82
2022-11-24T03:35:23.210Z,13.60
2022-11-24T03:37:50.566Z,13.95
2022-11-24T03:40:18.157Z,12.10
2022-11-24T03:42:45.401Z,11.48
2022-11-24T03:45:37.950Z,14.02
2022-11-24T03:48:00.134Z,15.00
2022-11-24T03:50:27.563Z,13.82
2022-11-24T03:52:54.863Z,14.38
2022-11-24T03:55:22.184Z,13.65
2022-11-24T03:57:49.447Z,12.48
2022-11-24T04:00:17.310Z,15.32
2022-11-24T04:02:44.664Z,13.70
2022-11-24T04:05:11.994Z,12.90
2022-11-24T04:07:39.268Z,17.73
2022-11-24T04:10:07.348Z,13.50
2022-11-24T04:12:46.741Z,15.23
2022-11-24T04:15:16.637Z,16.90
2022-11-24T04:17:45.110Z,16.42
2022-11-24T04:20:13.173Z,16.90
2022-11-24T04:22:40.640Z,16.75
2022-11-24T04:25:09.323Z,17.92
2022-11-24T04:27:37.662Z,19.48
2022-11-24T04:30:06.744Z,13.75
2022-11-24T04:32:33.982Z,14.93
2022-11-24T04:37:28.264Z,13.30
2022-11-24T04:39:55.448Z,13.65
2022-11-24T04:42:28.127Z,12.75
2022-11-24T04:44:55.559Z,16.77
2022-11-24T04:47:24.496Z,21.15
2022-11-24T04:50:17.210Z,19.55
2022-11-24T04:52:44.712Z,20.88
2022-11-24T04:55:12.347Z,13.07
2022-11-24T04:57:39.713Z,15.07
2022-11-24T05:00:07.869Z,14.68
2022-11-24T05:02:35.227Z,15.65
2022-11-24T05:05:02.732Z,16.75
2022-11-24T05:07:30.556Z,16.90
2022-11-24T05:10:16.467Z,12.82
2022-11-24T05:12:48.421Z,14.82
2022-11-24T05:15:18.503Z,13.40
2022-11-24T05:17:45.744Z,14.43
2022-11-24T05:20:13.044Z,14.95
2022-11-24T05:22:40.312Z,15.38
2022-11-24T05:25:07.911Z,19.02
2022-11-24T05:27:35.082Z,16.10
2022-11-24T05:30:02.432Z,17.95
2022-11-24T05:32:29.648Z,17.27
2022-11-24T05:34:58.173Z,14.13
2022-11-24T05:37:25.814Z,15.20
2022-11-24T05:39:54.547Z,12.73
2022-11-24T05:42:46.231Z,13.68
2022-11-24T05:45:19.875Z,14.90
2022-11-24T05:47:48.534Z,16.63
2022-11-24T05:50:18.236Z,15.38
2022-11-24T05:52:46.020Z,17.08
2022-11-24T06:05:08.499Z,17.02
2022-11-24T06:07:35.886Z,22.83
2022-11-24T06:10:03.876Z,19.60
2022-11-24T06:15:17.800Z,20.50
2022-11-24T06:17:45.315Z,21.15
2022-11-24T06:20:12.497Z,21.05
2022-11-24T06:22:39.738Z,23.20
2022-11-24T06:25:07.409Z,19.83
2022-11-24T06:27:34.824Z,18.67
2022-11-24T06:30:02.131Z,20.55
2022-11-24T06:32:29.367Z,23.80
2022-11-24T06:34:56.708Z,19.52
2022-11-24T06:37:23.998Z,21.58
2022-11-24T06:39:51.455Z,21.10
2022-11-24T06:42:19.036Z,19.67
2022-11-24T06:44:47.390Z,19.02
2022-11-24T06:47:15.435Z,16.17
2022-11-24T06:49:42.607Z,19.08
2022-11-24T06:52:09.838Z,24.33
2022-11-24T06:54:37.419Z,21.45
2022-11-24T07:16:42.053Z,26.88
2022-11-24T07:19:09.982Z,27.63
2022-11-24T07:21:37.233Z,28.38
2022-11-24T07:24:04.932Z,27.42
2022-11-24T07:26:37.118Z,23.77
2022-11-24T07:29:05.426Z,29.58
2022-11-24T07:31:32.744Z,27.13
2022-11-24T07:34:00.128Z,28.45
2022-11-24T07:36:27.605Z,20.38
2022-11-24T07:38:54.970Z,22.65
2022-11-24T07:41:22.295Z,20.10
2022-11-24T07:43:50.530Z,25.35
2022-11-24T07:46:19.404Z,27.88
2022-11-24T07:48:48.114Z,32.45
2022-11-24T07:51:16.057Z,38.92
2022-11-24T07:53:43.743Z,36.15
2022-11-24T07:56:11.182Z,34.28
2022-11-24T07:58:38.579Z,38.70
2022-11-24T08:01:14.415Z,35.97
2022-11-24T08:03:42.899Z,32.17
2022-11-24T08:06:32.247Z,30.48
2022-11-24T08:08:59.071Z,23.90
2022-11-24T08:11:27.168Z,29.83
2022-11-24T08:13:54.426Z,32.58
2022-11-24T08:16:21.840Z,28.63
2022-11-24T08:18:51.724Z,26.95
2022-11-24T08:21:19.946Z,29.40
2022-11-24T08:23:47.277Z,29.92
2022-11-24T08:26:19.918Z,29.05
2022-11-24T08:28:47.440Z,29.85
2022-11-24T08:31:21.010Z,29.85
2022-11-24T08:33:48.483Z,28.20
2022-11-24T08:36:17.918Z,30.60
2022-11-24T08:38:46.540Z,30.73
2022-11-24T08:41:15.928Z,29.67
2022-11-24T08:43:43.438Z,31.75
2022-11-24T08:46:17.274Z,30.48
2022-11-24T08:48:51.718Z,28.65
2022-11-24T08:51:21.604Z,29.23
2022-11-24T08:53:49.145Z,29.38
2022-11-24T08:56:16.467Z,28.98
2022-11-24T08:58:44.001Z,28.57
2022-11-24T09:01:14.407Z,28.27
2022-11-24T09:03:49.983Z,28.93
2022-11-24T09:06:22.883Z,28.83
2022-11-24T09:08:51.904Z,27.75
2022-11-24T09:11:19.510Z,26.35
2022-11-24T09:13:47.081Z,26.63
2022-11-24T09:16:20.394Z,26.52
2022-11-24T09:18:48.500Z,28.60
2022-11-24T09:21:20.841Z,27.63
2022-11-24T09:23:50.640Z,25.38
2022-11-24T09:26:24.459Z,26.38
2022-11-24T09:28:54.584Z,27.17
2022-11-24T09:31:30.922Z,26.87
2022-11-24T09:33:59.428Z,27.70
2022-11-24T09:36:27.375Z,28.35
2022-11-24T09:38:55.233Z,28.38
2022-11-24T09:41:40.754Z,27.95
2022-11-24T09:44:24.948Z,28.58
2022-11-24T09:47:13.938Z,26.92
2022-11-24T09:49:58.236Z,26.75
2022-11-24T09:52:43.033Z,28.52
2022-11-24T09:55:44.016Z,28.15
2022-11-24T09:58:18.607Z,28.67
2022-11-24T10:00:48.716Z,27.70
2022-11-24T10:03:31.835Z,29.07
2022-11-24T10:06:04.130Z,31.53
2022-11-24T10:08:38.688Z,32.28
2022-11-24T10:11:13.678Z,30.98
2022-11-24T10:14:15.480Z,30.00
2022-11-24T10:17:17.787Z,31.88
2022-11-24T10:19:56.118Z,31.27
2022-11-24T10:22:35.510Z,30.37
2022-11-24T10:25:19.200Z,33.72
2022-11-24T10:27:56.009Z,30.30
2022-11-24T10:30:26.837Z,32.33
2022-11-24T10:33:04.907Z,30.52
2022-11-24T10:35:45.899Z,30.77
2022-11-24T10:38:50.446Z,31.85
2022-11-24T10:41:39.564Z,32.53
2022-11-24T10:44:13.036Z,34.13
2022-11-24T10:46:40.584Z,37.03
2022-11-24T10:49:17.709Z,36.35
2022-11-24T10:52:06.043Z,37.33
2022-11-24T10:54:35.621Z,34.33
2022-11-24T10:57:03.359Z,36.05
2022-11-24T10:59:37.491Z,38.35
2022-11-24T11:02:30.245Z,35.55
2022-11-24T11:04:58.148Z,32.03
2022-11-24T11:07:26.562Z,33.23
2022-11-24T11:10:20.747Z,35.40
2022-11-24T11:12:50.497Z,36.00
2022-11-24T11:15:31.103Z,36.40
2022-11-24T11:18:00.210Z,37.83
2022-11-24T11:20:31.299Z,36.03
2022-11-24T11:23:02.128Z,36.47
2022-11-24T11:25:34.230Z,37.40
2022-11-24T11:28:30.926Z,37.17
2022-11-24T11:31:20.072Z,36.88
2022-11-24T11:34:04.580Z,40.97
2022-11-24T11:36:35.548Z,38.63
2022-11-24T11:39:03.892Z,38.00
2022-11-24T11:41:40.277Z,37.05
2022-11-24T11:44:22.854Z,36.38
2022-11-24T11:46:50.427Z,37.22
2022-11-24T11:49:18.285Z,38.90
2022-11-24T11:52:09.373Z,38.63
2022-11-24T11:55:01.510Z,37.25
2022-11-24T11:58:06.562Z,38.13
2022-11-24T12:00:39.648Z,36.10
2022-11-24T12:03:25.501Z,39.77
2022-11-24T12:06:21.443Z,39.47
2022-11-24T12:09:19.813Z,37.53
2022-11-24T12:12:23.656Z,38.63
2022-11-24T12:15:16.022Z,38.42
2022-11-24T12:18:40.337Z,39.05
2022-11-24T12:21:26.204Z,38.37
2022-11-24T12:24:18.109Z,39.17
2022-11-24T12:27:05.540Z,42.60
2022-11-24T12:29:54.614Z,38.50
2022-11-24T12:32:35.247Z,38.95
2022-11-24T12:35:15.279Z,40.33
2022-11-24T12:37:55.282Z,39.88
2022-11-24T12:40:55.258Z,43.88
2022-11-24T12:43:36.957Z,39.08
2022-11-24T12:46:25.325Z,38.93
2022-11-24T12:49:04.999Z,40.50
2022-11-24T12:51:35.851Z,41.57
2022-11-24T12:54:09.264Z,44.35
2022-11-24T12:56:50.907Z,40.65
2022-11-24T12:59:25.223Z,43.80
2022-11-24T13:01:59.717Z,38.38
2022-11-24T13:04:39.516Z,40.80
2022-11-24T13:07:17.988Z,41.90
2022-11-24T13:10:34.932Z,40.50
2022-11-24T13:13:12.513Z,36.53
2022-11-24T13:16:34.683Z,42.15
2022-11-24T13:19:00.468Z,38.53
2022-11-24T13:21:27.916Z,38.08
2022-11-24T13:23:57.988Z,40.23
2022-11-24T13:26:48.302Z,36.90
2022-11-24T13:29:28.031Z,39.13
2022-11-24T13:32:01.919Z,40.70
2022-11-24T13:34:38.732Z,37.60
2022-11-24T13:37:29.080Z,34.88
2022-11-24T13:40:12.021Z,38.40
2022-11-24T13:42:54.814Z,36.87
2022-11-24T13:45:52.514Z,37.38
2022-11-24T13:48:20.171Z,36.53
2022-11-24T13:51:14.352Z,36.40
2022-11-24T13:53:48.941Z,36.35
2022-11-24T13:56:17.301Z,35.28
2022-11-24T13:58:57.755Z,38.10
2022-11-24T14:01:28.380Z,35.70
2022-11-24T14:04:31.887Z,36.35
2022-11-24T14:07:12.792Z,36.67
2022-11-24T14:09:43.284Z,34.30
2022-11-24T14:12:16.875Z,36.17
2022-11-24T14:14:46.406Z,41.95
2022-11-24T14:17:14.717Z,35.33
2022-11-24T14:19:47.408Z,35.97
2022-11-24T14:22:31.242Z,33.30
2022-11-24T14:25:00.587Z,34.25
2022-11-24T14:27:31.539Z,38.05
2022-11-24T14:30:02.074Z,34.60
2022-11-24T14:32:31.285Z,34.38
2022-11-24T14:34:58.823Z,41.40
2022-11-24T14:37:26.201Z,42.03
2022-11-24T14:39:53.461Z,38.13
2022-11-24T14:42:27.261Z,37.43
2022-11-24T14:45:03.787Z,38.88
2022-11-24T14:47:37.031Z,46.55
2022-11-24T14:50:11.551Z,45.88
2022-11-24T14:53:04.576Z,40.13
2022-11-24T14:55:35.921Z,40.47
2022-11-24T14:58:20.652Z,40.05
2022-11-24T15:01:09.344Z,40.28
2022-11-24T15:03:36.657Z,41.63
2022-11-24T15:06:04.249Z,38.97
2022-11-24T15:08:42.145Z,39.05
2022-11-24T15:11:09.530Z,38.72
2022-11-24T15:13:40.427Z,39.78
2022-11-24T15:16:15.911Z,37.70
2022-11-24T15:18:58.323Z,38.40
2022-11-24T15:21:36.943Z,38.67
2022-11-24T15:24:06.154Z,36.70
2022-11-24T15:26:40.030Z,37.42
2022-11-24T15:29:12.594Z,37.25
2022-11-24T15:31:53.017Z,38.58
2022-11-24T15:34:46.703Z,36.60
2022-11-24T15:37:14.626Z,37.15
2022-11-24T15:39:42.667Z,39.22
2022-11-24T15:42:22.433Z,40.85
2022-11-24T15:45:12.084Z,40.65
2022-11-24T15:47:43.130Z,38.33
2022-11-24T15:50:20.832Z,43.92
2022-11-24T15:52:49.133Z,42.45
2022-11-24T15:56:35.782Z,40.97
2022-11-24T15:59:06.702Z,44.20
2022-11-24T16:01:40.504Z,45.45
2022-11-24T16:04:09.331Z,46.95
2022-11-24T16:06:43.857Z,41.90
2022-11-24T16:12:03.904Z,40.60
2022-11-24T16:14:41.793Z,42.40
2022-11-24T16:17:09.510Z,42.92
2022-11-24T16:19:41.819Z,42.63
2022-11-24T16:22:18.505Z,48.13
2022-11-24T16:24:46.073Z,47.42
2022-11-24T16:27:19.141Z,48.35
2022-11-24T16:29:46.643Z,47.50
2022-11-24T16:32:17.277Z,44.87
2022-11-24T16:34:47.547Z,46.45
2022-11-24T16:37:15.330Z,45.47
2022-11-24T16:39:50.019Z,48.53
2022-11-24T16:42:18.204Z,51.10
2022-11-24T16:44:48.586Z,53.38
2022-11-24T16:47:16.785Z,51.38
2022-11-24T16:49:46.383Z,52.97
2022-11-24T16:52:15.577Z,55.90
2022-11-24T16:54:45.879Z,50.70
2022-11-24T16:57:16.447Z,57.42
2022-11-24T16:59:45.902Z,54.33
2022-11-24T17:02:13.479Z,56.87
2022-11-24T17:04:41.043Z,58.13
2022-11-24T17:07:08.735Z,57.22
2022-11-24T17:09:40.546Z,58.80
2022-11-24T17:12:08.324Z,56.88
2022-11-24T17:14:36.284Z,56.67
2022-11-24T17:17:04.014Z,58.93
2022-11-24T17:19:31.927Z,58.17
2022-11-24T17:21:59.296Z,56.10
2022-11-24T17:24:28.861Z,57.20
2022-11-24T17:26:56.240Z,62.13
2022-11-24T17:29:23.571Z,61.53
2022-11-24T17:31:50.953Z,58.75
2022-11-24T17:34:18.349Z,59.33
2022-11-24T17:36:46.148Z,63.42
2022-11-24T17:39:13.651Z,59.67
2022-11-24T17:41:41.286Z,65.07
2022-11-24T17:44:10.728Z,70.50
2022-11-24T17:46:39.108Z,72.97
2022-11-24T17:49:13.156Z,69.43
2022-11-24T17:51:40.579Z,64.10
2022-11-24T17:54:44.916Z,66.68
2022-11-24T17:56:57.671Z,67.35
2022-11-24T17:59:26.048Z,62.17
2022-11-24T18:02:01.137Z,62.00
2022-11-24T18:04:34.939Z,60.95
2022-11-24T18:09:46.189Z,55.92
2022-11-24T18:12:13.635Z,53.33
2022-11-24T18:14:41.205Z,55.35
2022-11-24T18:17:12.144Z,55.92
2022-11-24T18:19:42.137Z,52.88
2022-11-24T18:22:09.602Z,56.03
2022-11-24T18:24:37.045Z,50.28
2022-11-24T18:27:04.611Z,53.95
2022-11-24T18:29:39.372Z,52.65
2022-11-24T18:32:15.158Z,53.65
2022-11-24T18:34:45.247Z,54.05
2022-11-24T18:37:14.771Z,50.17
2022-11-24T18:39:42.992Z,57.05
2022-11-24T18:42:10.789Z,56.42
2022-11-24T18:44:51.114Z,61.63
2022-11-24T18:47:21.270Z,54.10
2022-11-24T18:50:19.343Z,53.70
2022-11-24T18:52:46.817Z,55.05
2022-11-24T18:55:14.342Z,54.88
2022-11-24T18:57:43.043Z,58.83
2022-11-24T19:00:16.680Z,53.53
2022-11-24T19:02:44.395Z,55.87
2022-11-24T19:05:11.913Z,57.33
2022-11-24T19:07:39.440Z,55.47
2022-11-24T19:10:07.463Z,61.40
2022-11-24T19:12:35.147Z,62.47
2022-11-24T19:15:02.592Z,60.05
2022-11-24T19:17:30.105Z,56.88
2022-11-24T19:19:57.413Z,61.13
2022-11-24T19:22:24.853Z,61.08
2022-11-24T19:24:52.154Z,60.20
2022-11-24T19:27:21.856Z,60.22
2022-11-24T19:29:49.767Z,61.35
2022-11-24T19:32:19.434Z,61.88
2022-11-24T19:34:49.248Z,58.10
2022-11-24T19:37:16.742Z,64.20
2022-11-24T19:39:46.680Z,64.80
2022-11-24T19:42:14.113Z,59.30
2022-11-24T19:44:41.335Z,61.78
2022-11-24T19:47:08.700Z,62.20
2022-11-24T19:49:36.045Z,59.03
2022-11-24T19:52:03.565Z,63.45
2022-11-24T19:54:31.335Z,60.60
2022-11-24T19:56:58.688Z,61.85
2022-11-24T19:59:26.546Z,64.05
2022-11-24T20:01:58.694Z,62.58
2022-11-24T20:04:26.124Z,63.50
2022-11-24T20:06:54.340Z,61.40
2022-11-24T20:09:24.836Z,65.68
2022-11-24T20:11:52.182Z,67.72
2022-11-24T20:14:19.979Z,64.20
2022-11-24T20:16:48.105Z,67.97
2022-11-24T20:19:17.051Z,66.07
2022-11-24T20:21:47.890Z,69.75
2022-11-24T20:24:20.665Z,67.47
2022-11-24T20:26:51.327Z,66.60
2022-11-24T20:29:20.136Z,65.80
2022-11-24T20:31:56.064Z,61.58
2022-11-24T20:34:28.854Z,60.60
2022-11-24T20:36:56.354Z,68.37
2022-11-24T20:39:26.600Z,68.93
2022-11-24T20:41:55.631Z,64.13
2022-11-24T20:44:26.616Z,107.43
2022-11-24T20:46:56.758Z,85.15
2022-11-24T20:49:26.858Z,76.50
2022-11-24T20:51:54.586Z,68.60
2022-11-24T20:54:23.585Z,68.88
2022-11-24T20:56:51.295Z,64.53
2022-11-24T20:59:21.688Z,64.47
2022-11-24T21:01:50.979Z,65.57
2022-11-24T21:04:22.619Z,64.40
2022-11-24T21:06:50.577Z,59.05
2022-11-24T21:09:18.611Z,53.00
2022-11-24T21:11:46.586Z,52.83
2022-11-24T21:14:14.506Z,53.33
2022-11-24T21:16:43.214Z,49.35
2022-11-24T21:19:15.133Z,52.45
2022-11-24T21:21:43.228Z,47.92
2022-11-24T21:24:15.550Z,44.30
2022-11-24T21:26:47.392Z,45.15
2022-11-24T21:29:22.237Z,46.28
2022-11-24T21:31:49.786Z,51.45
2022-11-24T21:34:19.164Z,49.72
2022-11-24T21:36:47.220Z,51.25
2022-11-24T21:39:15.414Z,50.20
2022-11-24T21:41:43.305Z,54.00
2022-11-24T21:44:12.844Z,54.97
2022-11-24T21:46:45.691Z,57.03
2022-11-24T21:49:16.883Z,61.97
2022-11-24T21:51:44.073Z,61.38
2022-11-24T21:54:11.487Z,58.03
2022-11-24T21:56:38.737Z,59.50
2022-11-24T21:59:06.040Z,58.25
2022-11-24T22:01:33.375Z,48.20
2022-11-24T22:04:00.764Z,48.63
2022-11-24T22:06:28.034Z,46.30
2022-11-24T22:08:55.577Z,46.03
2022-11-24T22:11:25.110Z,47.50
2022-11-24T22:13:52.973Z,43.83
2022-11-24T22:16:23.003Z,45.83
2022-11-24T22:18:51.071Z,44.70
2022-11-24T22:21:23.844Z,47.38
2022-11-24T22:23:55.036Z,44.15
2022-11-24T22:26:23.820Z,44.25
2022-11-24T22:28:51.761Z,44.70
2022-11-24T22:31:21.787Z,44.72
2022-11-24T22:33:50.352Z,43.53
2022-11-24T22:36:20.754Z,42.38
2022-11-24T22:38:53.335Z,39.70
2022-11-24T22:41:21.040Z,39.38
2022-11-24T22:43:49.046Z,38.70
2022-11-24T22:46:22.073Z,39.28
2022-11-24T22:48:52.875Z,43.55
2022-11-24T22:51:23.794Z,44.70
2022-11-24T22:53:53.318Z,50.35
2022-11-24T22:56:21.431Z,51.53
2022-11-24T22:58:49.214Z,53.08
2022-11-24T23:01:19.599Z,54.17
2022-11-24T23:03:47.145Z,54.20
2022-11-24T23:06:16.807Z,59.75
2022-11-24T23:08:44.386Z,56.70
2022-11-24T23:11:17.747Z,59.75
2022-11-24T23:13:45.164Z,52.03
2022-11-24T23:16:17.957Z,52.55
2022-11-24T23:18:52.457Z,53.90
2022-11-24T23:21:21.144Z,52.60
2022-11-24T23:23:49.461Z,54.60
2022-11-24T23:26:25.271Z,48.42
2022-11-24T23:28:52.971Z,48.83
2022-11-24T23:31:24.074Z,50.80
2022-11-24T23:33:51.514Z,50.53
2022-11-24T23:36:20.513Z,53.00
2022-11-24T23:38:48.674Z,49.80
2022-11-24T23:41:18.998Z,50.22
2022-11-24T23:43:46.751Z,49.80
2022-11-24T23:46:22.677Z,46.17
2022-11-24T23:48:52.107Z,46.80
2022-11-24T23:51:22.067Z,44.50
2022-11-24T23:53:50.148Z,39.00
2022-11-24T23:56:23.658Z,39.50
2022-11-24T23:58:51.568Z,35.83
